YUL weather

Montreal / Pierre Elliott Trudeau International Airport
Montréal, Quebec, Canada

Public forecast

Using degrees Celsius for public forecast. Weather courtesy of forecast.io.

Current aviation weather report (METAR) for Montreal / Pierre Elliott Trudeau International Airport

Retrieved 2020/04/01 11:00 UTC (43 minutes ago):

CYUL 011100Z 02011KT 15SM SCT011 BKN250 M01/M03 A2997 RMK CF4CI1 SLP150

Aviation forecast (TAF) for Montreal / Pierre Elliott Trudeau International Airport

Retrieved 2020/04/01 09:42 UTC (2 hours ago):

TAF CYUL 010839Z 0109/0206 03012KT P6SM SKC TEMPO 0113/0116 BKN015 FM011600 02012KT P6SM BKN025 TEMPO 0116/0122 BKN020 FM012200 02010KT P6SM -SHRA BKN020 BKN040 FM020400 34006KT P6SM BKN020 RMK NXT FCST BY 011200Z